sensor_id;sensor_type;location;lat;lon;timestamp;pressure;altitude;pressure_sealevel;temperature;humidity
19526;BME280;9907;42.676;26.348;2023-04-29T00:01:05;99057.16;;;8.05;60.29
19526;BME280;9907;42.676;26.348;2023-04-29T00:03:30;99050.13;;;7.93;60.32
19526;BME280;9907;42.676;26.348;2023-04-29T00:05:59;99055.69;;;8.12;60.75
19526;BME280;9907;42.676;26.348;2023-04-29T00:08:25;99054.59;;;8.25;60.86
19526;BME280;9907;42.676;26.348;2023-04-29T00:10:50;99054.72;;;8.24;60.02
19526;BME280;9907;42.676;26.348;2023-04-29T00:13:16;99057.16;;;8.16;60.70
19526;BME280;9907;42.676;26.348;2023-04-29T00:15:41;99047.56;;;8.13;60.76
19526;BME280;9907;42.676;26.348;2023-04-29T00:18:07;99053.50;;;8.17;60.35
19526;BME280;9907;42.676;26.348;2023-04-29T00:20:33;99053.47;;;8.28;60.07
19526;BME280;9907;42.676;26.348;2023-04-29T00:22:59;99050.63;;;8.31;59.83
19526;BME280;9907;42.676;26.348;2023-04-29T00:25:24;99052.06;;;8.24;59.76
19526;BME280;9907;42.676;26.348;2023-04-29T00:27:50;99055.78;;;8.21;59.90
19526;BME280;9907;42.676;26.348;2023-04-29T00:30:15;99055.78;;;8.21;60.56
19526;BME280;9907;42.676;26.348;2023-04-29T00:32:41;99056.03;;;7.85;61.76
19526;BME280;9907;42.676;26.348;2023-04-29T00:35:08;99054.28;;;7.51;63.19
19526;BME280;9907;42.676;26.348;2023-04-29T00:37:33;99052.25;;;7.54;62.87
19526;BME280;9907;42.676;26.348;2023-04-29T00:39:59;99058.69;;;7.85;62.23
19526;BME280;9907;42.676;26.348;2023-04-29T00:42:24;99060.41;;;7.97;61.78
19526;BME280;9907;42.676;26.348;2023-04-29T00:44:50;99064.03;;;7.85;62.76
19526;BME280;9907;42.676;26.348;2023-04-29T00:47:17;99065.53;;;7.54;63.04
19526;BME280;9907;42.676;26.348;2023-04-29T00:49:43;99057.13;;;7.71;62.86
19526;BME280;9907;42.676;26.348;2023-04-29T00:52:10;99059.44;;;7.76;62.71
19526;BME280;9907;42.676;26.348;2023-04-29T00:54:36;99053.81;;;7.46;63.74
19526;BME280;9907;42.676;26.348;2023-04-29T00:57:03;99060.94;;;7.45;63.83
19526;BME280;9907;42.676;26.348;2023-04-29T00:59:30;99063.69;;;7.44;64.24
19526;BME280;9907;42.676;26.348;2023-04-29T01:02:01;99064.72;;;7.19;64.73
19526;BME280;9907;42.676;26.348;2023-04-29T01:04:28;99065.72;;;7.29;65.28
19526;BME280;9907;42.676;26.348;2023-04-29T01:07:11;99056.53;;;7.68;63.91
19526;BME280;9907;42.676;26.348;2023-04-29T01:10:02;99058.00;;;7.37;64.70
19526;BME280;9907;42.676;26.348;2023-04-29T01:12:50;99061.91;;;7.55;64.22
19526;BME280;9907;42.676;26.348;2023-04-29T01:15:38;99054.72;;;7.68;63.58
19526;BME280;9907;42.676;26.348;2023-04-29T01:18:25;99059.44;;;7.30;65.03
19526;BME280;9907;42.676;26.348;2023-04-29T01:20:50;99047.38;;;7.37;64.96
19526;BME280;9907;42.676;26.348;2023-04-29T01:23:16;99046.81;;;7.56;64.68
19526;BME280;9907;42.676;26.348;2023-04-29T01:25:42;99039.34;;;7.61;64.01
19526;BME280;9907;42.676;26.348;2023-04-29T01:39:13;99023.91;;;6.85;67.41
19526;BME280;9907;42.676;26.348;2023-04-29T01:44:32;99026.19;;;6.78;67.67
19526;BME280;9907;42.676;26.348;2023-04-29T01:47:00;99030.75;;;6.76;67.93
19526;BME280;9907;42.676;26.348;2023-04-29T01:49:26;99024.94;;;6.71;68.51
19526;BME280;9907;42.676;26.348;2023-04-29T01:51:53;99033.06;;;6.81;67.69
19526;BME280;9907;42.676;26.348;2023-04-29T01:54:18;99032.69;;;6.74;68.21
19526;BME280;9907;42.676;26.348;2023-04-29T01:56:45;99025.38;;;6.65;68.60
19526;BME280;9907;42.676;26.348;2023-04-29T01:59:10;99029.00;;;6.64;69.15
19526;BME280;9907;42.676;26.348;2023-04-29T02:01:36;99019.91;;;6.56;69.74
19526;BME280;9907;42.676;26.348;2023-04-29T02:04:02;99015.75;;;6.64;69.23
19526;BME280;9907;42.676;26.348;2023-04-29T02:06:28;99025.59;;;6.62;69.25
19526;BME280;9907;42.676;26.348;2023-04-29T02:08:54;99024.25;;;6.57;69.25
19526;BME280;9907;42.676;26.348;2023-04-29T02:11:19;99022.47;;;6.57;69.57
19526;BME280;9907;42.676;26.348;2023-04-29T02:13:45;99016.16;;;6.58;69.73
19526;BME280;9907;42.676;26.348;2023-04-29T02:16:12;99015.03;;;6.73;68.64
19526;BME280;9907;42.676;26.348;2023-04-29T02:18:38;99020.59;;;6.70;69.16
19526;BME280;9907;42.676;26.348;2023-04-29T02:21:05;99029.06;;;6.75;69.05
19526;BME280;9907;42.676;26.348;2023-04-29T02:23:30;99015.28;;;6.70;68.92
19526;BME280;9907;42.676;26.348;2023-04-29T02:25:56;99023.34;;;6.93;67.98
19526;BME280;9907;42.676;26.348;2023-04-29T02:28:21;99022.19;;;6.84;68.95
19526;BME280;9907;42.676;26.348;2023-04-29T02:30:48;99024.66;;;6.63;69.29
19526;BME280;9907;42.676;26.348;2023-04-29T02:33:14;99014.69;;;6.54;70.43
19526;BME280;9907;42.676;26.348;2023-04-29T02:35:40;99019.75;;;6.46;69.96
19526;BME280;9907;42.676;26.348;2023-04-29T02:38:06;99019.63;;;6.48;70.44
19526;BME280;9907;42.676;26.348;2023-04-29T02:40:31;99018.44;;;6.52;70.25
19526;BME280;9907;42.676;26.348;2023-04-29T02:42:57;99018.28;;;6.42;71.12
19526;BME280;9907;42.676;26.348;2023-04-29T02:45:22;99017.53;;;6.40;70.69
19526;BME280;9907;42.676;26.348;2023-04-29T02:47:48;99020.94;;;6.42;70.58
19526;BME280;9907;42.676;26.348;2023-04-29T02:50:13;99026.03;;;6.32;71.86
19526;BME280;9907;42.676;26.348;2023-04-29T02:52:39;99027.28;;;6.40;70.50
19526;BME280;9907;42.676;26.348;2023-04-29T02:55:06;99031.97;;;6.36;71.57
19526;BME280;9907;42.676;26.348;2023-04-29T02:57:32;99031.16;;;6.35;71.26
19526;BME280;9907;42.676;26.348;2023-04-29T02:59:58;99033.44;;;6.40;70.70
19526;BME280;9907;42.676;26.348;2023-04-29T03:02:24;99032.03;;;6.47;69.91
19526;BME280;9907;42.676;26.348;2023-04-29T03:04:49;99022.22;;;6.60;69.24
19526;BME280;9907;42.676;26.348;2023-04-29T03:07:15;99029.50;;;6.46;70.35
19526;BME280;9907;42.676;26.348;2023-04-29T03:09:41;99023.91;;;6.38;70.85
19526;BME280;9907;42.676;26.348;2023-04-29T03:12:07;99022.75;;;6.29;72.05
19526;BME280;9907;42.676;26.348;2023-04-29T03:14:32;99028.28;;;6.26;71.74
19526;BME280;9907;42.676;26.348;2023-04-29T03:16:58;99027.66;;;6.22;72.66
19526;BME280;9907;42.676;26.348;2023-04-29T03:19:24;99024.38;;;6.31;71.98
19526;BME280;9907;42.676;26.348;2023-04-29T03:21:49;99021.81;;;6.30;72.18
19526;BME280;9907;42.676;26.348;2023-04-29T03:24:15;99032.59;;;6.40;71.24
19526;BME280;9907;42.676;26.348;2023-04-29T03:26:40;99031.53;;;6.42;71.06
19526;BME280;9907;42.676;26.348;2023-04-29T03:29:07;99027.19;;;6.41;71.25
19526;BME280;9907;42.676;26.348;2023-04-29T03:31:33;99014.53;;;6.45;72.11
19526;BME280;9907;42.676;26.348;2023-04-29T03:33:58;99026.00;;;6.45;72.27
19526;BME280;9907;42.676;26.348;2023-04-29T03:36:24;99031.31;;;6.45;73.08
19526;BME280;9907;42.676;26.348;2023-04-29T03:38:49;99028.66;;;6.45;72.98
19526;BME280;9907;42.676;26.348;2023-04-29T03:41:15;99028.75;;;6.44;73.15
19526;BME280;9907;42.676;26.348;2023-04-29T03:43:41;99031.53;;;6.42;73.71
19526;BME280;9907;42.676;26.348;2023-04-29T03:46:09;99028.66;;;6.45;73.05
19526;BME280;9907;42.676;26.348;2023-04-29T03:48:34;99031.53;;;6.42;73.45
19526;BME280;9907;42.676;26.348;2023-04-29T03:51:01;99027.66;;;6.35;74.07
19526;BME280;9907;42.676;26.348;2023-04-29T03:53:26;99027.09;;;6.43;74.33
19526;BME280;9907;42.676;26.348;2023-04-29T03:55:52;99024.06;;;6.47;74.16
19526;BME280;9907;42.676;26.348;2023-04-29T03:58:17;99026.53;;;6.50;74.17
19526;BME280;9907;42.676;26.348;2023-04-29T04:00:43;99030.63;;;6.54;74.71
19526;BME280;9907;42.676;26.348;2023-04-29T04:03:08;99027.63;;;6.59;74.58
19526;BME280;9907;42.676;26.348;2023-04-29T04:05:34;99040.69;;;6.62;72.95
19526;BME280;9907;42.676;26.348;2023-04-29T04:07:59;99031.44;;;6.67;73.58
19526;BME280;9907;42.676;26.348;2023-04-29T04:10:25;99036.13;;;6.64;74.76
19526;BME280;9907;42.676;26.348;2023-04-29T04:12:52;99035.50;;;6.60;78.80
19526;BME280;9907;42.676;26.348;2023-04-29T04:15:17;99035.88;;;6.67;76.99
19526;BME280;9907;42.676;26.348;2023-04-29T04:17:43;99048.69;;;6.73;74.79
19526;BME280;9907;42.676;26.348;2023-04-29T04:20:09;99046.47;;;6.79;74.99
19526;BME280;9907;42.676;26.348;2023-04-29T04:22:34;99043.88;;;6.91;73.90
19526;BME280;9907;42.676;26.348;2023-04-29T04:25:00;99040.78;;;7.08;72.92
19526;BME280;9907;42.676;26.348;2023-04-29T04:27:25;99040.50;;;7.34;73.17
19526;BME280;9907;42.676;26.348;2023-04-29T04:29:54;99045.38;;;7.63;71.40
19526;BME280;9907;42.676;26.348;2023-04-29T04:32:23;99037.91;;;7.79;69.37
19526;BME280;9907;42.676;26.348;2023-04-29T04:34:49;99046.38;;;8.17;69.88
19526;BME280;9907;42.676;26.348;2023-04-29T04:37:14;99040.31;;;8.49;69.55
19526;BME280;9907;42.676;26.348;2023-04-29T04:39:40;99037.16;;;8.55;67.88
19526;BME280;9907;42.676;26.348;2023-04-29T04:42:06;99039.41;;;8.70;66.35
19526;BME280;9907;42.676;26.348;2023-04-29T04:44:31;99036.94;;;8.90;65.77
19526;BME280;9907;42.676;26.348;2023-04-29T04:46:58;99043.59;;;9.16;66.00
19526;BME280;9907;42.676;26.348;2023-04-29T04:49:25;99043.22;;;9.41;63.98
19526;BME280;9907;42.676;26.348;2023-04-29T04:51:52;99043.94;;;9.64;63.50
19526;BME280;9907;42.676;26.348;2023-04-29T04:54:17;99031.72;;;9.92;63.02
19526;BME280;9907;42.676;26.348;2023-04-29T04:56:43;99027.53;;;10.19;62.74
19526;BME280;9907;42.676;26.348;2023-04-29T04:59:08;99027.81;;;10.26;62.28
19526;BME280;9907;42.676;26.348;2023-04-29T05:01:34;99024.88;;;10.39;62.36
19526;BME280;9907;42.676;26.348;2023-04-29T05:03:59;99029.19;;;10.80;61.53
19526;BME280;9907;42.676;26.348;2023-04-29T05:06:26;99032.00;;;11.16;60.97
19526;BME280;9907;42.676;26.348;2023-04-29T05:08:52;99030.63;;;11.22;61.10
19526;BME280;9907;42.676;26.348;2023-04-29T05:11:18;99046.38;;;11.25;62.14
19526;BME280;9907;42.676;26.348;2023-04-29T05:13:44;99041.16;;;11.23;62.24
19526;BME280;9907;42.676;26.348;2023-04-29T05:16:10;99039.06;;;11.37;60.30
19526;BME280;9907;42.676;26.348;2023-04-29T05:18:36;99041.28;;;11.51;60.23
19526;BME280;9907;42.676;26.348;2023-04-29T05:21:01;99040.69;;;11.66;60.90
19526;BME280;9907;42.676;26.348;2023-04-29T05:23:26;99042.53;;;11.76;61.12
19526;BME280;9907;42.676;26.348;2023-04-29T05:25:52;99040.97;;;11.83;60.61
19526;BME280;9907;42.676;26.348;2023-04-29T05:28:18;99051.81;;;11.81;60.90
19526;BME280;9907;42.676;26.348;2023-04-29T05:30:44;99049.16;;;11.81;60.14
19526;BME280;9907;42.676;26.348;2023-04-29T05:33:10;99057.97;;;12.01;60.43
19526;BME280;9907;42.676;26.348;2023-04-29T05:35:36;99054.63;;;11.80;59.59
19526;BME280;9907;42.676;26.348;2023-04-29T05:38:03;99054.09;;;12.13;60.06
19526;BME280;9907;42.676;26.348;2023-04-29T05:40:28;99057.19;;;12.45;59.25
19526;BME280;9907;42.676;26.348;2023-04-29T05:42:54;99054.81;;;12.42;58.63
19526;BME280;9907;42.676;26.348;2023-04-29T05:45:19;99051.84;;;12.45;58.45
19526;BME280;9907;42.676;26.348;2023-04-29T05:47:45;99057.19;;;12.73;57.69
19526;BME280;9907;42.676;26.348;2023-04-29T05:50:10;99054.84;;;12.87;55.70
19526;BME280;9907;42.676;26.348;2023-04-29T05:52:36;99053.00;;;13.15;54.33
19526;BME280;9907;42.676;26.348;2023-04-29T05:55:02;99054.59;;;13.26;54.17
19526;BME280;9907;42.676;26.348;2023-04-29T05:57:27;99054.50;;;13.18;53.65
19526;BME280;9907;42.676;26.348;2023-04-29T05:59:53;99044.13;;;13.58;54.12
19526;BME280;9907;42.676;26.348;2023-04-29T06:02:23;99046.88;;;13.92;52.99
19526;BME280;9907;42.676;26.348;2023-04-29T06:04:49;99047.22;;;13.89;51.51
19526;BME280;9907;42.676;26.348;2023-04-29T06:07:16;99045.25;;;13.99;51.22
19526;BME280;9907;42.676;26.348;2023-04-29T06:09:42;99042.34;;;14.18;52.12
19526;BME280;9907;42.676;26.348;2023-04-29T06:12:08;99035.81;;;14.21;51.45
19526;BME280;9907;42.676;26.348;2023-04-29T06:14:34;99039.91;;;14.33;51.96
19526;BME280;9907;42.676;26.348;2023-04-29T06:16:59;99034.25;;;14.44;52.28
19526;BME280;9907;42.676;26.348;2023-04-29T06:19:25;99028.75;;;14.53;51.73
19526;BME280;9907;42.676;26.348;2023-04-29T06:21:50;99025.94;;;14.63;50.56
19526;BME280;9907;42.676;26.348;2023-04-29T06:24:16;99020.69;;;14.53;52.58
19526;BME280;9907;42.676;26.348;2023-04-29T06:26:41;99027.50;;;14.82;51.30
19526;BME280;9907;42.676;26.348;2023-04-29T06:29:07;99019.03;;;14.60;49.64
19526;BME280;9907;42.676;26.348;2023-04-29T06:31:33;99013.91;;;14.91;49.86
19526;BME280;9907;42.676;26.348;2023-04-29T06:33:59;99020.66;;;15.03;49.37
19526;BME280;9907;42.676;26.348;2023-04-29T06:36:24;99015.97;;;15.30;48.31
19526;BME280;9907;42.676;26.348;2023-04-29T06:38:51;99014.94;;;15.31;49.05
19526;BME280;9907;42.676;26.348;2023-04-29T06:41:17;99017.28;;;15.42;48.30
19526;BME280;9907;42.676;26.348;2023-04-29T06:43:42;99012.41;;;15.45;48.46
19526;BME280;9907;42.676;26.348;2023-04-29T06:46:09;99018.63;;;15.78;49.37
19526;BME280;9907;42.676;26.348;2023-04-29T06:48:35;99011.03;;;15.98;49.43
19526;BME280;9907;42.676;26.348;2023-04-29T06:51:00;99008.84;;;16.01;48.44
19526;BME280;9907;42.676;26.348;2023-04-29T06:53:26;99008.69;;;15.95;48.58
19526;BME280;9907;42.676;26.348;2023-04-29T06:55:51;99006.03;;;15.79;47.69
19526;BME280;9907;42.676;26.348;2023-04-29T06:58:18;99005.50;;;15.99;47.44
19526;BME280;9907;42.676;26.348;2023-04-29T07:00:47;99002.16;;;16.36;45.53
19526;BME280;9907;42.676;26.348;2023-04-29T07:03:14;99015.59;;;16.44;46.25
19526;BME280;9907;42.676;26.348;2023-04-29T07:05:39;99003.75;;;16.53;45.73
19526;BME280;9907;42.676;26.348;2023-04-29T07:08:06;99005.25;;;16.25;46.10
19526;BME280;9907;42.676;26.348;2023-04-29T07:10:32;99003.69;;;16.31;46.90
19526;BME280;9907;42.676;26.348;2023-04-29T07:12:58;99002.78;;;16.46;46.19
19526;BME280;9907;42.676;26.348;2023-04-29T07:15:26;99003.56;;;16.63;45.77
19526;BME280;9907;42.676;26.348;2023-04-29T07:17:52;98999.91;;;16.87;45.99
19526;BME280;9907;42.676;26.348;2023-04-29T07:20:17;99001.19;;;16.68;44.69
19526;BME280;9907;42.676;26.348;2023-04-29T07:22:43;99006.25;;;16.63;46.30
19526;BME280;9907;42.676;26.348;2023-04-29T07:25:09;98988.47;;;16.85;46.59
19526;BME280;9907;42.676;26.348;2023-04-29T07:27:35;98997.69;;;16.90;44.37
19526;BME280;9907;42.676;26.348;2023-04-29T07:30:01;98998.34;;;17.15;44.04
19526;BME280;9907;42.676;26.348;2023-04-29T07:32:27;98984.94;;;17.44;44.86
19526;BME280;9907;42.676;26.348;2023-04-29T07:34:52;98989.63;;;17.73;44.36
19526;BME280;9907;42.676;26.348;2023-04-29T07:37:18;98983.06;;;17.68;41.84
19526;BME280;9907;42.676;26.348;2023-04-29T07:39:44;98984.00;;;17.75;42.43
19526;BME280;9907;42.676;26.348;2023-04-29T07:42:10;98976.59;;;17.77;40.94
19526;BME280;9907;42.676;26.348;2023-04-29T07:44:35;98978.03;;;17.65;42.29
19526;BME280;9907;42.676;26.348;2023-04-29T07:47:01;98972.28;;;17.97;43.19
19526;BME280;9907;42.676;26.348;2023-04-29T07:49:26;98966.91;;;17.97;40.50
19526;BME280;9907;42.676;26.348;2023-04-29T07:51:52;98962.25;;;18.06;42.23
19526;BME280;9907;42.676;26.348;2023-04-29T07:54:17;98967.91;;;18.55;39.57
19526;BME280;9907;42.676;26.348;2023-04-29T07:56:44;98960.34;;;18.35;38.80
19526;BME280;9907;42.676;26.348;2023-04-29T07:59:10;98963.16;;;18.27;39.39
19526;BME280;9907;42.676;26.348;2023-04-29T08:01:35;98962.63;;;18.17;42.11
19526;BME280;9907;42.676;26.348;2023-04-29T08:04:01;98959.81;;;18.55;42.85
19526;BME280;9907;42.676;26.348;2023-04-29T08:06:26;98959.03;;;18.61;43.07
19526;BME280;9907;42.676;26.348;2023-04-29T08:08:53;98957.91;;;18.55;42.88
19526;BME280;9907;42.676;26.348;2023-04-29T08:11:20;98949.41;;;18.73;43.15
19526;BME280;9907;42.676;26.348;2023-04-29T08:13:46;98945.69;;;18.59;44.51
19526;BME280;9907;42.676;26.348;2023-04-29T08:16:12;98953.09;;;18.21;44.23
19526;BME280;9907;42.676;26.348;2023-04-29T08:18:38;98949.53;;;18.35;44.08
19526;BME280;9907;42.676;26.348;2023-04-29T08:21:04;98940.19;;;18.53;43.18
19526;BME280;9907;42.676;26.348;2023-04-29T08:23:30;98935.09;;;18.28;43.44
19526;BME280;9907;42.676;26.348;2023-04-29T08:25:57;98936.63;;;18.67;42.11
19526;BME280;9907;42.676;26.348;2023-04-29T08:28:22;98934.97;;;18.87;41.26
19526;BME280;9907;42.676;26.348;2023-04-29T08:30:48;98940.56;;;18.85;44.14
19526;BME280;9907;42.676;26.348;2023-04-29T08:33:13;98933.56;;;18.40;43.78
19526;BME280;9907;42.676;26.348;2023-04-29T08:35:40;98932.13;;;18.09;42.48
19526;BME280;9907;42.676;26.348;2023-04-29T08:38:07;98931.91;;;18.54;44.86
19526;BME280;9907;42.676;26.348;2023-04-29T08:40:43;98923.25;;;18.80;42.43
19526;BME280;9907;42.676;26.348;2023-04-29T08:43:10;98923.38;;;18.21;44.28
19526;BME280;9907;42.676;26.348;2023-04-29T08:45:36;98925.03;;;18.73;43.98
19526;BME280;9907;42.676;26.348;2023-04-29T08:48:02;98919.63;;;18.73;41.39
19526;BME280;9907;42.676;26.348;2023-04-29T08:50:29;98915.25;;;18.93;42.12
19526;BME280;9907;42.676;26.348;2023-04-29T08:52:54;98917.31;;;19.12;41.75
19526;BME280;9907;42.676;26.348;2023-04-29T08:55:20;98912.03;;;19.04;41.50
19526;BME280;9907;42.676;26.348;2023-04-29T08:57:48;98909.41;;;19.38;42.36
19526;BME280;9907;42.676;26.348;2023-04-29T09:00:15;98907.06;;;19.57;41.98
19526;BME280;9907;42.676;26.348;2023-04-29T09:02:48;98902.75;;;19.41;41.26
19526;BME280;9907;42.676;26.348;2023-04-29T09:05:14;98900.13;;;19.48;40.75
19526;BME280;9907;42.676;26.348;2023-04-29T09:07:40;98909.53;;;19.03;42.90
19526;BME280;9907;42.676;26.348;2023-04-29T09:10:06;98896.25;;;18.65;42.25
19526;BME280;9907;42.676;26.348;2023-04-29T09:12:32;98903.91;;;18.62;43.13
19526;BME280;9907;42.676;26.348;2023-04-29T09:14:58;98901.84;;;18.85;44.01
19526;BME280;9907;42.676;26.348;2023-04-29T09:17:43;98892.13;;;18.90;41.33
19526;BME280;9907;42.676;26.348;2023-04-29T09:23:01;98878.81;;;19.66;40.60
19526;BME280;9907;42.676;26.348;2023-04-29T09:25:28;98882.09;;;19.61;41.85
19526;BME280;9907;42.676;26.348;2023-04-29T09:27:54;98881.56;;;19.44;41.62
19526;BME280;9907;42.676;26.348;2023-04-29T09:30:21;98880.88;;;19.15;42.74
19526;BME280;9907;42.676;26.348;2023-04-29T09:33:08;98886.84;;;18.82;42.10
19526;BME280;9907;42.676;26.348;2023-04-29T09:35:34;98875.00;;;18.83;40.70
19526;BME280;9907;42.676;26.348;2023-04-29T09:38:10;98863.78;;;18.65;42.49
19526;BME280;9907;42.676;26.348;2023-04-29T09:40:37;98870.66;;;18.68;42.10
19526;BME280;9907;42.676;26.348;2023-04-29T09:43:11;98852.41;;;18.55;40.33
19526;BME280;9907;42.676;26.348;2023-04-29T09:45:42;98857.81;;;18.70;40.42
19526;BME280;9907;42.676;26.348;2023-04-29T09:48:09;98844.72;;;18.73;41.96
19526;BME280;9907;42.676;26.348;2023-04-29T09:50:36;98847.16;;;18.68;42.29
19526;BME280;9907;42.676;26.348;2023-04-29T09:53:03;98841.69;;;18.62;41.09
19526;BME280;9907;42.676;26.348;2023-04-29T09:55:28;98839.50;;;18.72;42.91
19526;BME280;9907;42.676;26.348;2023-04-29T09:57:55;98833.41;;;18.48;40.41
19526;BME280;9907;42.676;26.348;2023-04-29T10:00:20;98835.84;;;18.58;42.00
19526;BME280;9907;42.676;26.348;2023-04-29T10:02:47;98825.16;;;18.35;40.98
19526;BME280;9907;42.676;26.348;2023-04-29T10:05:14;98830.06;;;18.46;41.45
19526;BME280;9907;42.676;26.348;2023-04-29T10:07:41;98826.34;;;18.47;40.43
19526;BME280;9907;42.676;26.348;2023-04-29T10:10:08;98832.78;;;18.68;41.10
19526;BME280;9907;42.676;26.348;2023-04-29T10:12:36;98822.09;;;18.60;41.56
19526;BME280;9907;42.676;26.348;2023-04-29T10:15:33;98828.16;;;18.83;41.96
19526;BME280;9907;42.676;26.348;2023-04-29T10:20:36;98813.50;;;18.77;40.92
19526;BME280;9907;42.676;26.348;2023-04-29T10:23:05;98804.22;;;18.86;40.70
19526;BME280;9907;42.676;26.348;2023-04-29T10:25:31;98803.44;;;18.92;40.37
19526;BME280;9907;42.676;26.348;2023-04-29T10:28:02;98805.06;;;18.87;42.24
19526;BME280;9907;42.676;26.348;2023-04-29T10:30:28;98803.59;;;18.84;41.41
19526;BME280;9907;42.676;26.348;2023-04-29T10:32:54;98815.50;;;18.90;40.33
19526;BME280;9907;42.676;26.348;2023-04-29T10:35:21;98809.09;;;18.70;39.54
19526;BME280;9907;42.676;26.348;2023-04-29T10:37:50;98804.88;;;18.25;40.75
19526;BME280;9907;42.676;26.348;2023-04-29T10:40:23;98802.53;;;18.22;43.14
19526;BME280;9907;42.676;26.348;2023-04-29T10:42:53;98803.38;;;18.22;42.09
19526;BME280;9907;42.676;26.348;2023-04-29T10:45:20;98794.69;;;18.06;40.35
19526;BME280;9907;42.676;26.348;2023-04-29T10:50:28;98791.78;;;17.57;41.08
19526;BME280;9907;42.676;26.348;2023-04-29T10:52:54;98783.91;;;17.91;41.67
19526;BME280;9907;42.676;26.348;2023-04-29T10:55:22;98788.00;;;18.23;41.75
19526;BME280;9907;42.676;26.348;2023-04-29T10:57:47;98789.94;;;17.93;41.80
19526;BME280;9907;42.676;26.348;2023-04-29T11:00:26;98783.97;;;17.62;41.91
19526;BME280;9907;42.676;26.348;2023-04-29T11:02:55;98788.59;;;17.38;41.26
19526;BME280;9907;42.676;26.348;2023-04-29T11:05:32;98781.63;;;17.29;42.05
19526;BME280;9907;42.676;26.348;2023-04-29T11:10:40;98778.72;;;17.45;42.49
19526;BME280;9907;42.676;26.348;2023-04-29T11:13:23;98782.16;;;17.54;42.55
19526;BME280;9907;42.676;26.348;2023-04-29T11:15:50;98774.22;;;17.82;42.11
19526;BME280;9907;42.676;26.348;2023-04-29T11:18:16;98773.47;;;17.88;42.27
19526;BME280;9907;42.676;26.348;2023-04-29T11:23:39;98768.66;;;17.54;41.91
19526;BME280;9907;42.676;26.348;2023-04-29T11:26:09;98768.00;;;17.52;42.28
19526;BME280;9907;42.676;26.348;2023-04-29T11:28:35;98766.91;;;17.32;42.23
19526;BME280;9907;42.676;26.348;2023-04-29T11:31:00;98762.59;;;17.37;42.59
19526;BME280;9907;42.676;26.348;2023-04-29T11:33:30;98772.69;;;17.29;42.05
19526;BME280;9907;42.676;26.348;2023-04-29T11:35:56;98764.47;;;17.51;41.83
19526;BME280;9907;42.676;26.348;2023-04-29T11:38:28;98763.66;;;17.51;41.95
19526;BME280;9907;42.676;26.348;2023-04-29T11:40:58;98757.78;;;17.33;42.56
19526;BME280;9907;42.676;26.348;2023-04-29T11:43:24;98768.84;;;17.38;41.95
19526;BME280;9907;42.676;26.348;2023-04-29T11:45:50;98759.81;;;17.45;42.08
19526;BME280;9907;42.676;26.348;2023-04-29T11:48:23;98754.16;;;17.55;41.84
19526;BME280;9907;42.676;26.348;2023-04-29T11:50:56;98746.84;;;17.56;42.73
19526;BME280;9907;42.676;26.348;2023-04-29T11:53:26;98750.50;;;17.48;43.07
19526;BME280;9907;42.676;26.348;2023-04-29T11:55:54;98749.56;;;17.56;42.45
19526;BME280;9907;42.676;26.348;2023-04-29T11:58:21;98733.97;;;17.36;42.78
19526;BME280;9907;42.676;26.348;2023-04-29T12:00:47;98736.66;;;17.36;42.63
19526;BME280;9907;42.676;26.348;2023-04-29T12:03:18;98732.81;;;17.45;42.21
19526;BME280;9907;42.676;26.348;2023-04-29T12:08:13;98720.91;;;17.40;42.48
19526;BME280;9907;42.676;26.348;2023-04-29T12:10:40;98715.22;;;17.64;42.80
19526;BME280;9907;42.676;26.348;2023-04-29T12:13:05;98717.81;;;17.72;43.56
19526;BME280;9907;42.676;26.348;2023-04-29T12:15:31;98719.59;;;17.50;42.81
19526;BME280;9907;42.676;26.348;2023-04-29T12:17:57;98714.44;;;17.56;43.01
19526;BME280;9907;42.676;26.348;2023-04-29T12:20:22;98716.63;;;17.60;43.30
19526;BME280;9907;42.676;26.348;2023-04-29T12:22:48;98710.53;;;17.73;43.92
19526;BME280;9907;42.676;26.348;2023-04-29T12:25:14;98709.88;;;17.71;42.17
19526;BME280;9907;42.676;26.348;2023-04-29T12:27:40;98712.28;;;17.80;43.33
19526;BME280;9907;42.676;26.348;2023-04-29T12:30:09;98702.13;;;18.04;42.60
19526;BME280;9907;42.676;26.348;2023-04-29T12:32:36;98706.06;;;18.01;42.34
19526;BME280;9907;42.676;26.348;2023-04-29T12:35:02;98705.59;;;17.76;43.02
19526;BME280;9907;42.676;26.348;2023-04-29T12:37:28;98701.28;;;17.82;41.84
19526;BME280;9907;42.676;26.348;2023-04-29T12:39:54;98690.69;;;17.80;42.82
19526;BME280;9907;42.676;26.348;2023-04-29T12:42:20;98692.66;;;17.72;42.82
19526;BME280;9907;42.676;26.348;2023-04-29T12:44:46;98679.03;;;17.59;42.30
19526;BME280;9907;42.676;26.348;2023-04-29T12:47:13;98676.19;;;17.67;41.85
19526;BME280;9907;42.676;26.348;2023-04-29T12:49:46;98673.13;;;17.70;41.91
19526;BME280;9907;42.676;26.348;2023-04-29T12:52:12;98668.53;;;17.56;42.46
19526;BME280;9907;42.676;26.348;2023-04-29T12:54:41;98664.03;;;17.41;42.24
19526;BME280;9907;42.676;26.348;2023-04-29T12:57:08;98666.78;;;17.48;42.45
19526;BME280;9907;42.676;26.348;2023-04-29T12:59:34;98674.09;;;17.47;42.45
19526;BME280;9907;42.676;26.348;2023-04-29T13:02:00;98651.88;;;17.52;42.70
19526;BME280;9907;42.676;26.348;2023-04-29T13:04:26;98663.13;;;17.56;44.55
19526;BME280;9907;42.676;26.348;2023-04-29T13:06:52;98661.22;;;17.49;43.43
19526;BME280;9907;42.676;26.348;2023-04-29T13:09:24;98656.66;;;17.50;43.19
19526;BME280;9907;42.676;26.348;2023-04-29T13:11:49;98663.34;;;17.54;43.50
19526;BME280;9907;42.676;26.348;2023-04-29T13:14:16;98654.97;;;17.64;43.12
19526;BME280;9907;42.676;26.348;2023-04-29T13:16:41;98649.63;;;17.56;43.36
19526;BME280;9907;42.676;26.348;2023-04-29T13:19:07;98647.44;;;17.44;43.51
19526;BME280;9907;42.676;26.348;2023-04-29T13:21:32;98642.41;;;17.41;42.81
19526;BME280;9907;42.676;26.348;2023-04-29T13:23:58;98641.22;;;17.44;43.29
19526;BME280;9907;42.676;26.348;2023-04-29T13:26:23;98646.81;;;17.42;43.03
19526;BME280;9907;42.676;26.348;2023-04-29T13:28:50;98639.72;;;17.41;43.75
19526;BME280;9907;42.676;26.348;2023-04-29T13:31:15;98637.94;;;17.48;44.37
19526;BME280;9907;42.676;26.348;2023-04-29T13:33:41;98641.09;;;17.52;44.05